Time;durP1;ratioP1;P1;durP2;ratioP2;P2;SDS_P1;SDS_P2;PMS_P1;PMS_P2;Temp;Humidity;BMP_temperature;BMP_pressure;BME280_temperature;BME280_humidity;BME280_pressure;Samples;Min_cycle;Max_cycle;Signal;HPM_P1;HPM_P2
2023/08/22 00:01:22;;;;;;;6.57;3.27;;;;;;;20.13;74.10;101562.22;6237437;23;20424;-87
2023/08/22 00:03:56;;;;;;;5.97;3.97;;;;;;;20.05;74.79;101566.19;6229934;23;20438;-87
2023/08/22 00:06:31;;;;;;;6.37;4.10;;;;;;;20.01;74.73;101555.94;6236179;23;20418;-87
2023/08/22 00:09:11;;;;;;;7.50;4.00;;;;;;;19.92;75.38;101563.78;6242363;23;20374;-88
2023/08/22 00:11:46;;;;;;;6.17;3.83;;;;;;;19.82;75.74;101560.84;6242218;23;20399;-88
2023/08/22 00:14:25;;;;;;;5.83;3.43;;;;;;;19.79;76.66;101566.84;6217526;23;20404;-88
2023/08/22 00:17:00;;;;;;;5.10;3.30;;;;;;;19.94;76.28;101558.88;6243144;23;20347;-87
2023/08/22 00:19:33;;;;;;;7.97;4.03;;;;;;;19.99;76.05;101558.97;6241201;23;20410;-87
2023/08/22 00:22:19;;;;;;;10.40;4.23;;;;;;;20.02;76.28;101552.13;6242582;23;20444;-88
2023/08/22 00:25:17;;;;;;;6.50;4.23;;;;;;;20.04;76.23;101552.72;6242656;23;20374;-88
2023/08/22 00:27:57;;;;;;;8.47;3.53;;;;;;;20.06;76.48;101551.38;6267471;22;20454;-86
2023/08/22 00:30:36;;;;;;;4.43;2.90;;;;;;;20.10;77.04;101544.31;6228394;23;20390;-88
2023/08/22 00:33:07;;;;;;;6.43;3.23;;;;;;;20.18;76.63;101549.41;6226381;23;20434;-87
2023/08/22 00:35:40;;;;;;;7.70;4.30;;;;;;;20.04;76.87;101542.56;6238798;23;20437;-87
2023/08/22 00:38:10;;;;;;;3.93;3.13;;;;;;;20.00;76.92;101546.88;6230458;23;20382;-87
2023/08/22 00:40:47;;;;;;;5.30;3.50;;;;;;;19.83;78.13;101540.53;6220301;23;20526;-87
2023/08/22 00:43:29;;;;;;;7.03;4.30;;;;;;;19.89;78.11;101534.91;6219731;23;20382;-87
2023/08/22 00:46:02;;;;;;;6.03;3.90;;;;;;;19.84;78.30;101536.72;6245889;23;20402;-87
2023/08/22 00:48:35;;;;;;;9.10;5.37;;;;;;;19.76;78.61;101534.38;6221180;23;20383;-85
2023/08/22 00:51:21;;;;;;;7.80;3.87;;;;;;;19.72;79.26;101528.53;6225601;23;20436;-87
2023/08/22 00:53:56;;;;;;;6.07;4.13;;;;;;;19.81;79.04;101531.69;6220880;23;20410;-87
2023/08/22 00:56:27;;;;;;;9.90;4.50;;;;;;;19.83;78.49;101530.41;6220406;23;20756;-86
2023/08/22 00:59:29;;;;;;;7.67;4.30;;;;;;;19.81;78.75;101527.03;6219573;23;20433;-87
2023/08/22 01:02:27;;;;;;;6.73;4.47;;;;;;;19.83;78.54;101529.56;6220624;23;20504;-88
2023/08/22 01:08:29;;;;;;;8.10;3.97;;;;;;;19.64;79.80;101519.88;6221147;23;20955;-87
2023/08/22 01:15:06;;;;;;;6.50;4.07;;;;;;;19.62;79.21;101528.34;6220700;23;20726;-86
2023/08/22 01:24:23;;;;;;;6.30;3.70;;;;;;;19.89;76.60;101518.41;6240200;23;20401;-86
2023/08/22 01:27:17;;;;;;;8.47;3.23;;;;;;;19.89;76.58;101512.09;6222436;23;20716;-86
2023/08/22 01:29:59;;;;;;;6.60;3.60;;;;;;;19.84;76.88;101510.09;6218039;23;20382;-87
2023/08/22 01:36:30;;;;;;;11.27;4.40;;;;;;;19.91;76.03;101515.41;6209959;23;20401;-86
2023/08/22 01:39:07;;;;;;;6.00;3.00;;;;;;;19.88;74.79;101515.91;6143447;23;20378;-86
2023/08/22 01:42:45;;;;;;;7.30;3.33;;;;;;;19.87;74.71;101515.06;6214942;23;20413;-85
2023/08/22 01:45:41;;;;;;;6.13;3.57;;;;;;;20.00;73.95;101518.56;6199818;23;20428;-86
2023/08/22 01:48:37;;;;;;;5.50;3.00;;;;;;;19.93;73.88;101519.59;6212660;22;20464;-87
2023/08/22 01:51:51;;;;;;;6.20;3.57;;;;;;;19.96;73.30;101519.06;6207426;23;20388;-86
2023/08/22 01:54:26;;;;;;;9.83;3.10;;;;;;;20.04;73.04;101523.34;6218463;23;20416;-86
2023/08/22 01:57:06;;;;;;;9.30;3.87;;;;;;;20.02;73.05;101522.75;6219830;23;20755;-86
2023/08/22 02:00:03;;;;;;;4.77;2.83;;;;;;;20.09;72.61;101517.09;6219557;23;20901;-87
2023/08/22 02:02:44;;;;;;;5.37;2.77;;;;;;;19.96;72.75;101508.09;6227480;23;20439;-86
2023/08/22 02:05:34;;;;;;;4.07;3.67;;;;;;;19.96;72.65;101501.75;6217473;23;20454;-87
2023/08/22 02:08:14;;;;;;;9.27;4.10;;;;;;;19.96;73.40;101501.75;6217705;23;20848;-86
2023/08/22 02:11:12;;;;;;;6.63;2.80;;;;;;;19.93;73.68;101502.28;6221678;23;20392;-87
2023/08/22 02:13:59;;;;;;;9.10;3.80;;;;;;;20.01;72.76;101493.59;6200483;23;20430;-86
2023/08/22 02:16:43;;;;;;;8.40;3.50;;;;;;;19.85;73.44;101502.66;6224454;23;20381;-86
2023/08/22 02:19:25;;;;;;;3.37;2.73;;;;;;;19.84;73.50;101495.53;6236202;23;20388;-87
2023/08/22 02:24:57;;;;;;;10.70;4.73;;;;;;;19.93;73.13;101507.75;6241961;23;20530;-87
2023/08/22 02:27:41;;;;;;;5.43;3.27;;;;;;;19.99;73.93;101497.69;6241455;23;20435;-86
2023/08/22 02:33:38;;;;;;;6.50;3.53;;;;;;;20.22;71.87;101489.25;6237622;23;20400;-88
2023/08/22 02:36:36;;;;;;;7.20;3.77;;;;;;;20.13;72.17;101488.88;6242485;23;20428;-87
2023/08/22 02:39:11;;;;;;;9.10;3.30;;;;;;;20.07;72.12;101487.09;6242715;23;20400;-87
2023/08/22 02:41:41;;;;;;;6.53;3.93;;;;;;;20.04;72.51;101482.13;6242481;23;20409;-87
2023/08/22 02:44:14;;;;;;;10.13;3.20;;;;;;;20.00;75.55;101491.94;6242551;23;20439;-85
2023/08/22 02:46:59;;;;;;;6.17;3.40;;;;;;;20.05;73.36;101482.94;6242451;23;20370;-88
2023/08/22 02:49:41;;;;;;;5.90;3.50;;;;;;;19.91;73.28;101486.03;6242645;23;20487;-87
2023/08/22 02:52:48;;;;;;;3.90;3.13;;;;;;;19.89;73.11;101476.38;6242836;23;20406;-88
2023/08/22 02:55:23;;;;;;;6.10;3.20;;;;;;;19.94;72.91;101474.53;6217718;23;20417;-87
2023/08/22 02:58:10;;;;;;;4.57;3.10;;;;;;;20.00;72.75;101469.94;6242967;23;20351;-87
2023/08/22 03:00:47;;;;;;;12.47;3.60;;;;;;;19.98;72.91;101479.53;6241784;23;20415;-87
2023/08/22 03:03:49;;;;;;;6.73;3.87;;;;;;;19.96;73.10;101486.09;6243001;23;20401;-86
2023/08/22 03:06:49;;;;;;;5.17;4.43;;;;;;;19.92;73.48;101495.09;6242851;23;20359;-86
2023/08/22 03:09:58;;;;;;;9.53;3.27;;;;;;;19.93;73.55;101467.38;6243971;23;20338;-87
2023/08/22 03:12:32;;;;;;;6.83;3.20;;;;;;;19.95;73.80;101480.84;6242868;23;20354;-87
2023/08/22 03:29:34;;;;;;;5.13;3.37;;;;;;;19.96;73.93;101468.78;5156483;27;20549;-88
2023/08/22 03:32:33;;;;;;;5.10;2.90;;;;;;;20.15;73.29;101475.69;5141435;28;20451;-88
2023/08/22 03:35:23;;;;;;;8.30;3.93;;;;;;;20.08;73.69;101465.97;5119930;28;20455;-88
2023/08/22 03:38:30;;;;;;;3.97;3.03;;;;;;;20.06;73.42;101466.22;5120007;28;20400;-87
2023/08/22 03:41:08;;;;;;;5.33;3.17;;;;;;;20.17;72.98;101476.28;5100420;28;20471;-87
2023/08/22 03:47:28;;;;;;;8.97;4.03;;;;;;;20.08;73.52;101466.81;5092411;28;20472;-87
2023/08/22 03:53:29;;;;;;;3.50;2.77;;;;;;;20.22;72.99;101470.88;5090602;28;20427;-87
2023/08/22 03:56:28;;;;;;;4.90;3.30;;;;;;;20.36;72.13;101463.94;5087664;28;20942;-87
2023/08/22 03:59:16;;;;;;;5.53;3.00;;;;;;;20.24;72.27;101454.94;5075206;28;20449;-87
2023/08/22 04:02:01;;;;;;;3.90;3.07;;;;;;;20.17;72.17;101448.81;5107419;28;20414;-87
2023/08/22 04:05:34;;;;;;;5.30;3.40;;;;;;;20.03;73.04;101447.50;5090910;28;20465;-87
2023/08/22 04:12:21;;;;;;;8.50;3.90;;;;;;;19.88;73.29;101441.75;5102993;28;20436;-86
2023/08/22 04:15:39;;;;;;;6.53;3.37;;;;;;;19.94;72.53;101438.00;5081431;28;20443;-87
2023/08/22 04:22:21;;;;;;;6.67;3.07;;;;;;;20.00;71.96;101450.72;5111737;28;20451;-86
2023/08/22 04:24:59;;;;;;;5.60;3.27;;;;;;;20.07;71.97;101437.66;5094799;28;20443;-87
2023/08/22 04:31:29;;;;;;;8.73;4.23;;;;;;;19.89;72.99;101435.19;5092776;28;20460;-86
2023/08/22 04:38:15;;;;;;;6.77;3.00;;;;;;;20.10;72.06;101431.66;5093272;28;20426;-87
2023/08/22 04:40:59;;;;;;;8.63;3.13;;;;;;;20.17;71.04;101429.56;5048539;28;20420;-87
2023/08/22 04:44:08;;;;;;;3.60;2.80;;;;;;;20.19;70.45;101423.78;5066067;28;20819;-87
2023/08/22 04:50:58;;;;;;;5.33;3.30;;;;;;;20.48;69.07;101427.28;5107866;28;20476;-86
2023/08/22 04:53:52;;;;;;;;;;;;;;;;;;;;;
2023/08/22 04:56:28;;;;;;;12.67;7.70;;;;;;;20.53;68.25;101425.41;5070378;28;20839;-87
2023/08/22 05:03:31;;;;;;;5.90;3.03;;;;;;;20.60;67.92;101423.31;5074008;28;20431;-87
2023/08/22 05:06:06;;;;;;;5.63;3.50;;;;;;;20.70;66.47;101414.34;5076621;28;20420;-87
2023/08/22 05:08:38;;;;;;;5.80;2.93;;;;;;;20.61;65.80;101402.16;5078497;28;20443;-86
2023/08/22 05:14:08;;;;;;;8.30;4.30;;;;;;;20.63;66.28;101408.19;5079286;28;20493;-86
2023/08/22 05:16:55;;;;;;;8.00;3.67;;;;;;;20.68;66.23;101400.84;5082847;28;20438;-86
2023/08/22 05:19:26;;;;;;;11.53;5.33;;;;;;;20.60;67.29;101386.72;5073159;28;20411;-87
2023/08/22 05:22:09;;;;;;;11.30;4.20;;;;;;;20.49;68.11;101384.94;5081513;28;20438;-87
2023/08/22 05:25:05;;;;;;;6.83;3.40;;;;;;;20.82;68.77;101401.28;5113219;28;20443;-87
2023/08/22 05:27:38;;;;;;;7.50;4.13;;;;;;;20.93;66.43;101397.56;5108674;28;20445;-87
2023/08/22 05:33:41;;;;;;;8.67;3.40;;;;;;;20.98;66.43;101400.38;5088613;28;20438;-87
2023/08/22 05:36:34;;;;;;;9.33;4.90;;;;;;;21.09;66.85;101393.88;5093455;28;20448;-88
2023/08/22 05:39:26;;;;;;;9.40;5.47;;;;;;;21.22;65.27;101399.00;5121597;22;20452;-87
2023/08/22 05:42:23;;;;;;;8.20;4.20;;;;;;;21.43;62.89;101397.28;5041389;28;20448;-88
2023/08/22 05:48:23;;;;;;;11.57;4.47;;;;;;;21.61;62.03;101394.09;5046703;28;20417;-87
2023/08/22 05:55:06;;;;;;;7.03;3.03;;;;;;;22.15;60.46;101401.41;5058244;28;20482;-87
2023/08/22 05:58:14;;;;;;;8.73;5.00;;;;;;;22.00;59.62;101407.66;5037363;28;20503;-86
2023/08/22 06:01:32;;;;;;;7.03;3.80;;;;;;;22.06;59.98;101410.19;5064621;28;20453;-87
2023/08/22 06:11:52;;;;;;;12.53;11.00;;;;;;;21.85;61.06;101424.88;5059116;28;20407;-87
2023/08/22 06:27:34;;;;;;;10.20;3.60;;;;;;;22.03;60.94;101394.16;5027678;28;20411;-87
2023/08/22 06:38:28;;;;;;;5.30;2.67;;;;;;;22.67;57.86;101391.16;4926003;29;20440;-87
2023/08/22 06:41:35;;;;;;;4.40;3.37;;;;;;;22.39;59.58;101405.38;4930520;29;20837;-87
2023/08/22 06:44:30;;;;;;;3.63;2.50;;;;;;;22.15;58.88;101398.63;4928758;29;20534;-87
2023/08/22 06:47:15;;;;;;;11.03;3.23;;;;;;;22.04;59.29;101393.06;4945009;29;20456;-87
2023/08/22 06:50:07;;;;;;;4.63;2.40;;;;;;;22.07;59.42;101392.53;4927948;29;20481;-89
2023/08/22 06:52:47;;;;;;;4.87;2.90;;;;;;;22.41;58.65;101400.44;4916072;29;20459;-87
2023/08/22 06:55:47;;;;;;;5.17;3.03;;;;;;;22.72;57.23;101410.53;4928356;29;20476;-87
2023/08/22 06:58:29;;;;;;;7.87;3.47;;;;;;;22.76;57.33;101406.13;4928709;29;20449;-87
2023/08/22 07:01:12;;;;;;;10.93;3.40;;;;;;;22.67;57.73;101407.72;4924238;29;20446;-88
2023/08/22 07:03:47;;;;;;;4.90;3.00;;;;;;;22.70;57.55;101401.72;4964779;28;20493;-86
2023/08/22 07:06:36;;;;;;;8.67;2.80;;;;;;;22.73;56.83;101381.84;5006892;28;20495;-87
2023/08/22 07:09:15;;;;;;;6.20;3.20;;;;;;;22.47;57.25;101380.03;5051676;28;20429;-87
2023/08/22 07:11:49;;;;;;;6.77;2.90;;;;;;;22.25;57.44;101382.16;5056690;28;20471;-88
2023/08/22 07:14:23;;;;;;;2.20;2.00;;;;;;;22.28;58.02;101393.47;5060601;28;20494;-87
2023/08/22 07:19:53;;;;;;;11.93;3.23;;;;;;;22.27;58.56;101397.31;5058959;28;20429;-86
2023/08/22 07:22:33;;;;;;;5.67;3.40;;;;;;;22.48;57.05;101401.03;5067635;28;20423;-87
2023/08/22 07:25:03;;;;;;;6.80;2.73;;;;;;;22.55;56.60;101407.13;5076284;28;20518;-86
2023/08/22 07:27:38;;;;;;;7.13;2.90;;;;;;;22.56;57.57;101397.72;5070674;28;20437;-87
2023/08/22 07:30:31;;;;;;;6.67;3.80;;;;;;;22.68;57.31;101390.06;5057769;28;20522;-86
2023/08/22 07:33:28;;;;;;;10.03;3.63;;;;;;;22.56;57.95;101392.22;5075625;28;20435;-87
2023/08/22 07:36:00;;;;;;;7.07;4.00;;;;;;;22.64;58.04;101397.22;5070236;28;20451;-86
2023/08/22 07:41:30;;;;;;;13.93;5.07;;;;;;;22.60;58.58;101363.03;5075189;28;20446;-87
2023/08/22 07:44:08;;;;;;;7.07;3.60;;;;;;;22.82;58.20;101368.34;5082414;28;20446;-87
2023/08/22 07:46:47;;;;;;;3.90;2.80;;;;;;;23.02;57.08;101371.16;5064839;28;20511;-87
2023/08/22 07:49:24;;;;;;;10.50;3.80;;;;;;;23.02;57.52;101364.78;5075881;28;20529;-87
2023/08/22 07:51:54;;;;;;;7.77;2.90;;;;;;;23.01;57.00;101360.38;5074666;28;20451;-87
2023/08/22 07:54:25;;;;;;;9.80;3.33;;;;;;;23.22;56.16;101365.66;5075511;28;20477;-87
2023/08/22 07:56:58;;;;;;;6.10;2.80;;;;;;;23.34;55.99;101368.97;5075084;28;20451;-87
2023/08/22 07:59:53;;;;;;;10.27;4.03;;;;;;;23.22;55.76;101362.06;5062206;28;20451;-86
2023/08/22 08:02:27;;;;;;;5.90;3.17;;;;;;;23.22;55.65;101370.34;5085396;28;20426;-87
2023/08/22 08:05:00;;;;;;;10.17;3.67;;;;;;;23.34;55.50;101384.69;5090975;28;20446;-87
2023/08/22 08:07:35;;;;;;;5.40;2.73;;;;;;;23.31;54.15;101396.31;5085324;28;20457;-88
2023/08/22 08:10:19;;;;;;;10.10;3.10;;;;;;;23.21;54.21;101397.13;5086038;28;20460;-86
2023/08/22 08:15:54;;;;;;;3.53;2.43;;;;;;;23.02;56.58;101375.84;5079758;28;20459;-87
2023/08/22 08:18:39;;;;;;;4.50;3.47;;;;;;;23.11;57.78;101379.72;5078120;28;20420;-86
2023/08/22 08:24:13;;;;;;;6.70;2.90;;;;;;;23.36;57.08;101377.81;5081182;28;20449;-85
2023/08/22 08:26:53;;;;;;;5.17;3.03;;;;;;;23.52;55.72;101378.69;5064170;28;20442;-85
2023/08/22 08:30:10;;;;;;;6.30;3.10;;;;;;;23.62;56.12;101375.91;5080945;28;20459;-87
2023/08/22 08:33:19;;;;;;;11.50;3.23;;;;;;;23.40;56.71;101345.78;5080036;28;20409;-86
2023/08/22 08:35:58;;;;;;;8.03;2.77;;;;;;;23.30;56.13;101350.47;5079783;28;20422;-87
2023/08/22 10:57:47;;;;;;;5.50;3.07;;;;;;;26.49;48.43;101315.28;4143667;23;20464;-87
2023/08/22 11:00:23;;;;;;;11.83;3.93;;;;;;;26.04;50.02;101325.81;4923325;29;20436;-87
2023/08/22 11:02:59;;;;;;;8.70;2.60;;;;;;;25.86;50.78;101321.00;4915562;29;20461;-85
2023/08/22 11:05:31;;;;;;;9.07;3.00;;;;;;;25.73;50.37;101310.63;4905875;29;20442;-86
2023/08/22 11:08:05;;;;;;;5.67;2.30;;;;;;;25.87;50.82;101314.34;4885769;29;20422;-85
2023/08/22 11:10:39;;;;;;;4.60;2.67;;;;;;;25.81;50.34;101318.28;4893618;29;20459;-87
2023/08/22 11:13:11;;;;;;;7.67;3.23;;;;;;;25.61;50.50;101319.31;4917976;29;20453;-86
2023/08/22 11:15:47;;;;;;;6.87;3.20;;;;;;;25.66;50.55;101310.16;4904791;29;20504;-85
2023/08/22 11:18:18;;;;;;;4.87;2.53;;;;;;;25.70;50.68;101314.00;4905532;29;20444;-87
2023/08/22 11:20:56;;;;;;;9.43;2.83;;;;;;;25.65;49.84;101305.72;4934763;29;20450;-86
2023/08/22 11:23:25;;;;;;;7.10;3.40;;;;;;;25.63;50.57;101311.56;4916342;29;20465;-86
2023/08/22 11:25:55;;;;;;;7.23;3.40;;;;;;;25.76;49.64;101310.84;4905498;29;20445;-85
2023/08/22 11:28:32;;;;;;;2.60;1.93;;;;;;;25.99;48.77;101309.22;4905543;29;20505;-86
2023/08/22 11:31:04;;;;;;;4.10;2.40;;;;;;;25.92;47.11;101312.34;4905574;29;20500;-85
2023/08/22 11:33:49;;;;;;;5.90;2.63;;;;;;;25.73;47.98;101313.41;4905512;29;20530;-85
2023/08/22 11:36:21;;;;;;;4.60;3.07;;;;;;;25.79;46.83;101312.22;4932406;29;20503;-86
2023/08/22 11:38:58;;;;;;;6.57;2.53;;;;;;;25.65;48.79;101319.59;4928115;29;20410;-86
2023/08/22 11:41:28;;;;;;;5.53;2.73;;;;;;;25.73;48.71;101321.72;4905751;29;20462;-86
2023/08/22 11:44:01;;;;;;;6.00;3.60;;;;;;;26.09;47.80;101314.66;4921928;29;20471;-85
2023/08/22 11:46:51;;;;;;;3.03;2.50;;;;;;;26.12;47.60;101314.06;4904269;29;20472;-84
2023/08/22 11:49:42;;;;;;;3.60;2.77;;;;;;;25.98;46.77;101313.13;4909251;29;20410;-87
2023/08/22 11:52:11;;;;;;;9.00;2.60;;;;;;;26.12;47.35;101308.50;4919515;29;20563;-86
2023/08/22 11:54:45;;;;;;;5.20;2.60;;;;;;;26.51;46.94;101304.72;4915982;29;20460;-86
2023/08/22 11:57:15;;;;;;;4.80;3.10;;;;;;;26.80;45.74;101316.50;4892351;29;20801;-85
2023/08/22 11:59:47;;;;;;;5.83;2.90;;;;;;;27.30;44.27;101317.69;4900756;29;20399;-85
2023/08/22 12:02:18;;;;;;;9.30;3.30;;;;;;;27.63;44.19;101319.34;4908192;29;20462;-86
2023/08/22 12:04:55;;;;;;;5.80;2.90;;;;;;;27.91;43.57;101325.75;4915604;29;20855;-87
2023/08/22 12:07:25;;;;;;;3.57;2.87;;;;;;;28.43;42.28;101323.59;4914520;29;20425;-87
2023/08/22 12:10:00;;;;;;;3.53;2.47;;;;;;;28.28;42.20;101323.94;4899775;29;20497;-86
2023/08/22 12:12:31;;;;;;;4.97;2.40;;;;;;;28.28;41.02;101310.00;4879263;29;20454;-86
2023/08/22 12:15:02;;;;;;;5.37;3.50;;;;;;;28.25;41.84;101305.06;4878815;29;20478;-87
2023/08/22 12:17:32;;;;;;;3.50;2.63;;;;;;;28.36;41.67;101306.50;4914827;29;20427;-88
2023/08/22 12:20:06;;;;;;;4.20;2.70;;;;;;;27.96;41.45;101320.09;4898391;29;20465;-89
2023/08/22 12:22:36;;;;;;;3.97;2.50;;;;;;;27.64;41.89;101323.75;4923416;29;20426;-89
2023/08/22 12:25:07;;;;;;;3.30;2.37;;;;;;;27.39;40.93;101318.63;4905344;29;20494;-88
2023/08/22 12:27:37;;;;;;;3.40;3.10;;;;;;;27.39;41.98;101326.97;4896957;29;20612;-87
2023/08/22 12:30:10;;;;;;;3.97;3.10;;;;;;;27.12;42.64;101324.91;4896872;29;20551;-88
2023/08/22 12:32:44;;;;;;;5.93;3.43;;;;;;;26.96;43.78;101331.03;4905322;29;20506;-87
2023/08/22 12:35:38;;;;;;;5.10;3.00;;;;;;;26.95;42.68;101332.16;4896389;29;20466;-88
2023/08/22 12:38:09;;;;;;;9.03;3.50;;;;;;;26.77;42.59;101329.03;4909044;29;20458;-87
2023/08/22 12:40:39;;;;;;;6.73;2.90;;;;;;;26.74;43.08;101328.81;4895076;29;20822;-88
2023/08/22 12:43:09;;;;;;;4.87;3.10;;;;;;;26.68;43.41;101333.59;4913983;29;20483;-87
2023/08/22 12:45:41;;;;;;;5.90;3.40;;;;;;;26.65;43.43;101336.16;4897862;29;20487;-88
2023/08/22 12:48:11;;;;;;;8.40;3.73;;;;;;;26.45;44.21;101333.66;4915800;29;20438;-88
2023/08/22 12:50:42;;;;;;;4.87;3.17;;;;;;;26.59;43.36;101323.47;4903903;29;21017;-87
2023/08/22 12:53:13;;;;;;;5.23;3.10;;;;;;;26.53;43.48;101324.69;4919600;29;20434;-87
2023/08/22 12:55:48;;;;;;;5.40;2.93;;;;;;;26.60;43.54;101323.16;4906029;29;20458;-87
2023/08/22 12:58:17;;;;;;;3.73;2.37;;;;;;;26.67;43.53;101320.03;4884877;29;20501;-88
2023/08/22 13:00:54;;;;;;;6.33;2.70;;;;;;;26.73;43.83;101319.66;4892783;29;20493;-88
2023/08/22 13:03:24;;;;;;;5.67;3.60;;;;;;;26.65;43.86;101308.41;4895552;29;20469;-87
2023/08/22 13:05:56;;;;;;;3.70;3.13;;;;;;;26.66;44.26;101318.38;4916137;29;20438;-88
2023/08/22 13:08:29;;;;;;;6.23;2.90;;;;;;;26.47;44.02;101321.13;4900353;29;20545;-88
2023/08/22 13:11:18;;;;;;;3.43;3.03;;;;;;;26.29;44.48;101311.66;4904257;29;20494;-89
2023/08/22 13:13:50;;;;;;;4.77;3.00;;;;;;;26.30;44.58;101329.94;4905939;29;20488;-88
2023/08/22 13:16:28;;;;;;;4.73;2.27;;;;;;;26.19;44.79;101320.06;4915715;29;20458;-90
2023/08/22 13:19:00;;;;;;;4.43;3.40;;;;;;;25.92;45.93;101325.38;4928379;29;20489;-88
2023/08/22 13:21:30;;;;;;;3.50;2.63;;;;;;;25.85;46.74;101319.38;4899825;29;20458;-87
2023/08/22 13:24:02;;;;;;;7.23;2.60;;;;;;;25.84;46.32;101309.41;4902909;29;20553;-88
2023/08/22 13:26:32;;;;;;;5.60;3.00;;;;;;;25.97;46.84;101314.22;4902878;29;20468;-88
2023/08/22 13:29:05;;;;;;;5.93;2.50;;;;;;;26.13;45.85;101310.16;4919771;29;20441;-87
2023/08/22 13:31:38;;;;;;;4.57;3.23;;;;;;;26.36;45.76;101309.34;4915599;29;20456;-89
2023/08/22 13:34:08;;;;;;;4.70;2.70;;;;;;;26.34;46.18;101306.03;4907491;29;20453;-87
2023/08/22 13:36:40;;;;;;;4.87;2.63;;;;;;;26.55;45.22;101308.53;4899896;29;20477;-88
2023/08/22 13:39:15;;;;;;;5.27;2.80;;;;;;;26.60;45.13;101314.00;4915519;29;20496;-88
2023/08/22 13:41:47;;;;;;;4.33;3.00;;;;;;;26.77;44.97;101314.34;4902209;29;20535;-87
2023/08/22 13:44:20;;;;;;;7.53;2.93;;;;;;;26.73;44.31;101307.72;4900705;29;20522;-87
2023/08/22 13:46:52;;;;;;;8.37;3.70;;;;;;;26.59;44.89;101309.59;4894335;29;20450;-88
2023/08/22 13:56:26;;;;;;;7.03;2.90;;;;;;;26.81;45.15;101321.75;4914915;29;20458;-88
2023/08/22 14:28:12;;;;;;;5.73;3.63;;;;;;;26.57;47.18;101325.72;4934642;29;20448;-89
2023/08/22 15:07:30;;;;;;;7.23;4.00;;;;;;;25.81;47.20;101332.97;4990737;23;20483;-88
2023/08/22 15:13:53;;;;;;;8.70;4.00;;;;;;;25.85;48.14;101322.94;4934693;28;20469;-88
2023/08/22 15:16:26;;;;;;;8.03;4.83;;;;;;;25.83;48.22;101310.50;4964757;28;20434;-88
2023/08/22 15:29:57;;;;;;;4.20;3.37;;;;;;;25.53;48.36;101309.69;6173312;23;20490;-88
2023/08/22 15:32:28;;;;;;;4.90;3.50;;;;;;;25.44;48.48;101305.88;6160749;23;20373;-87
2023/08/22 15:35:01;;;;;;;7.00;4.00;;;;;;;25.37;49.88;101308.16;6159780;23;20393;-85
2023/08/22 15:37:30;;;;;;;6.53;3.90;;;;;;;25.49;48.87;101311.38;6161165;23;20405;-86
2023/08/22 15:40:07;;;;;;;6.70;3.73;;;;;;;25.50;48.72;101307.50;6160818;23;20385;-86
2023/08/22 15:42:38;;;;;;;8.23;5.23;;;;;;;25.38;49.66;101303.44;6156863;23;20437;-84
2023/08/22 15:45:10;;;;;;;7.37;4.37;;;;;;;25.47;48.74;101304.47;6190944;23;20399;-85
2023/08/22 15:47:41;;;;;;;4.70;3.87;;;;;;;25.22;49.76;101311.09;6191195;23;20385;-84
2023/08/22 15:50:13;;;;;;;5.83;3.80;;;;;;;25.16;50.09;101312.22;6190961;23;20373;-84
2023/08/22 15:52:43;;;;;;;3.90;3.37;;;;;;;25.24;50.34;101314.38;6190805;23;20376;-85
2023/08/22 15:55:15;;;;;;;6.60;4.77;;;;;;;25.37;50.59;101308.16;6189143;23;20435;-85
2023/08/22 15:57:52;;;;;;;5.03;3.70;;;;;;;25.44;48.71;101314.19;6188098;23;20441;-84
2023/08/22 16:00:29;;;;;;;5.20;4.30;;;;;;;25.26;49.99;101323.22;6188922;23;20408;-86
2023/08/22 16:02:59;;;;;;;13.67;4.60;;;;;;;25.28;50.16;101325.69;6190736;23;20359;-84
2023/08/22 16:05:33;;;;;;;5.97;4.27;;;;;;;25.25;50.44;101316.03;6187038;23;20469;-84
2023/08/22 16:08:08;;;;;;;9.63;3.90;;;;;;;25.42;50.19;101321.97;6159442;23;20431;-86
2023/08/22 16:10:41;;;;;;;5.97;4.80;;;;;;;25.38;50.74;101318.13;6184629;23;20383;-85
2023/08/22 16:13:24;;;;;;;7.80;4.27;;;;;;;25.44;50.85;101325.28;6182237;23;20414;-84
2023/08/22 16:16:00;;;;;;;5.47;4.00;;;;;;;25.35;51.26;101310.41;6181359;23;20369;-85
2023/08/22 16:18:32;;;;;;;7.30;3.67;;;;;;;25.40;49.72;101315.06;6184473;23;20416;-84
2023/08/22 16:21:02;;;;;;;9.67;4.80;;;;;;;25.32;50.42;101324.81;6183909;23;20373;-86
2023/08/22 16:23:35;;;;;;;6.73;3.20;;;;;;;25.44;49.54;101319.75;6188629;23;20451;-84
2023/08/22 16:26:06;;;;;;;9.70;4.30;;;;;;;25.38;50.30;101309.81;6183064;23;20359;-85
2023/08/22 16:28:39;;;;;;;7.67;3.30;;;;;;;25.47;48.71;101305.28;6181084;23;20401;-85
2023/08/22 16:31:10;;;;;;;6.57;4.00;;;;;;;25.49;49.80;101311.38;6175669;23;20723;-84
2023/08/22 16:33:41;;;;;;;7.43;2.97;;;;;;;25.78;48.42;101313.34;6175640;23;20378;-83
2023/08/22 16:36:12;;;;;;;5.73;3.20;;;;;;;25.95;48.08;101311.75;6175821;23;20409;-86
2023/08/22 16:38:49;;;;;;;8.30;3.63;;;;;;;26.10;48.98;101310.75;6175789;23;20528;-85
2023/08/22 16:41:26;;;;;;;7.37;3.20;;;;;;;26.41;46.36;101293.75;6175934;23;20380;-86
2023/08/22 16:44:00;;;;;;;5.23;3.03;;;;;;;26.42;46.64;101292.63;6176193;23;20477;-84
2023/08/22 16:46:37;;;;;;;4.93;3.60;;;;;;;26.52;45.43;101285.00;6175051;23;20381;-86
2023/08/22 16:49:15;;;;;;;7.13;4.43;;;;;;;26.17;45.93;101288.19;6175118;23;20465;-86
2023/08/22 16:51:51;;;;;;;4.83;3.53;;;;;;;26.58;44.84;101288.50;6149678;23;20444;-84
2023/08/22 16:54:23;;;;;;;5.50;3.90;;;;;;;26.77;45.38;101286.56;6151113;23;20448;-85
2023/08/22 16:56:55;;;;;;;7.33;3.33;;;;;;;27.20;44.24;101287.28;6152185;23;20402;-86
2023/08/22 16:59:27;;;;;;;9.50;3.07;;;;;;;27.44;43.33;101284.38;6175716;23;20424;-85
2023/08/22 17:01:59;;;;;;;6.07;3.13;;;;;;;27.63;43.51;101291.53;6176482;23;20366;-85
2023/08/22 17:04:32;;;;;;;7.50;3.63;;;;;;;27.97;42.64;101307.03;6147958;23;20460;-84
2023/08/22 17:07:03;;;;;;;5.97;3.67;;;;;;;27.98;40.17;101300.34;6147966;23;20441;-84
2023/08/22 17:09:37;;;;;;;5.30;3.43;;;;;;;27.71;41.43;101301.13;6172761;23;20414;-85
2023/08/22 17:12:11;;;;;;;4.83;3.53;;;;;;;27.52;41.62;101309.53;6174196;23;20377;-85
2023/08/22 17:14:44;;;;;;;7.10;3.23;;;;;;;26.75;44.19;101303.53;6172952;23;20409;-85
2023/08/22 17:17:17;;;;;;;6.20;4.57;;;;;;;26.50;43.05;101303.06;6174627;23;20441;-84
2023/08/22 17:19:49;;;;;;;9.03;6.30;;;;;;;25.89;46.08;101303.81;6174823;23;20424;-86
2023/08/22 17:22:20;;;;;;;6.10;4.63;;;;;;;25.56;47.10;101302.78;6172260;23;20370;-84
2023/08/22 17:24:50;;;;;;;9.00;4.00;;;;;;;25.22;47.44;101299.19;6173268;23;20388;-85
2023/08/22 17:27:23;;;;;;;7.07;3.57;;;;;;;25.06;49.52;101299.28;6149196;23;20508;-84
2023/08/22 17:29:58;;;;;;;8.30;3.93;;;;;;;24.87;47.99;101303.03;6149738;23;20508;-83
2023/08/22 17:32:33;;;;;;;4.30;2.90;;;;;;;24.46;48.25;101297.72;6157084;23;20919;-84
2023/08/22 17:35:04;;;;;;;9.87;4.90;;;;;;;24.24;49.71;101289.00;6156884;23;20437;-85
2023/08/22 17:37:38;;;;;;;8.93;4.03;;;;;;;24.22;49.04;101288.44;6181003;23;20357;-84
2023/08/22 17:40:15;;;;;;;4.30;3.07;;;;;;;24.30;48.52;101293.41;6148753;23;20454;-85
2023/08/22 17:42:49;;;;;;;60.20;48.03;;;;;;;24.23;51.65;101287.31;6175190;23;20410;-84
2023/08/22 17:45:20;;;;;;;12.30;7.07;;;;;;;24.13;51.69;101288.16;6176473;23;20397;-85
2023/08/22 17:47:51;;;;;;;7.60;5.90;;;;;;;24.03;51.15;101287.38;6150218;23;20411;-85
2023/08/22 17:50:21;;;;;;;9.17;6.60;;;;;;;24.04;51.41;101283.50;6150564;23;20362;-84
2023/08/22 17:52:55;;;;;;;7.67;5.93;;;;;;;23.95;52.12;101282.44;6155306;23;20371;-85
2023/08/22 17:55:29;;;;;;;9.70;7.57;;;;;;;23.85;52.32;101286.06;6183264;23;20465;-85
2023/08/22 17:58:13;;;;;;;18.27;11.97;;;;;;;23.63;53.47;101278.09;6157684;23;20419;-85
2023/08/22 18:00:52;;;;;;;21.90;8.17;;;;;;;23.46;54.18;101277.59;6152210;23;20415;-85
2023/08/22 18:03:34;;;;;;;8.77;5.50;;;;;;;23.39;54.82;101277.84;6150517;23;20421;-85
2023/08/22 18:06:14;;;;;;;19.60;15.03;;;;;;;23.31;56.74;101285.84;6152727;23;20400;-86
2023/08/22 18:08:44;;;;;;;14.07;7.40;;;;;;;23.07;56.40;101295.81;6152629;23;20401;-85
2023/08/22 18:11:21;;;;;;;8.93;7.97;;;;;;;22.86;57.15;101290.25;6152438;23;20386;-84